createdAt,value
2022-08-01T00:00:13.058Z,6.93
2022-08-01T00:02:42.583Z,8.80
2022-08-01T00:05:11.616Z,7.30
2022-08-01T00:07:41.606Z,5.67
2022-08-01T00:10:12.242Z,7.27
2022-08-01T00:12:41.415Z,7.10
2022-08-01T00:15:11.605Z,7.33
2022-08-01T00:17:40.590Z,6.43
2022-08-01T00:20:14.188Z,8.60
2022-08-01T00:22:43.878Z,12.60
2022-08-01T00:25:11.948Z,8.63
2022-08-01T00:27:40.359Z,7.13
2022-08-01T00:30:13.090Z,8.70
2022-08-01T00:32:42.913Z,9.40
2022-08-01T00:35:11.515Z,7.23
2022-08-01T00:37:39.494Z,7.43
2022-08-01T00:40:10.111Z,6.47
2022-08-01T00:42:43.026Z,7.60
2022-08-01T00:45:12.235Z,13.87
2022-08-01T00:47:40.995Z,14.53
2022-08-01T00:50:10.584Z,7.53
2022-08-01T00:52:39.297Z,8.17
2022-08-01T00:55:14.942Z,7.50
2022-08-01T00:58:03.477Z,9.10
2022-08-01T01:00:33.829Z,8.00
2022-08-01T01:03:23.586Z,11.97
2022-08-01T01:06:07.775Z,8.20
2022-08-01T01:09:25.391Z,8.97
2022-08-01T01:12:03.212Z,8.50
2022-08-01T01:14:37.234Z,7.30
2022-08-01T01:17:09.205Z,11.13
2022-08-01T01:19:43.704Z,8.00
2022-08-01T01:22:38.895Z,7.27
2022-08-01T01:25:24.087Z,7.63
2022-08-01T01:28:07.723Z,9.87
2022-08-01T01:30:38.959Z,8.23
2022-08-01T01:33:12.022Z,8.03
2022-08-01T01:35:46.993Z,6.27
2022-08-01T01:38:20.552Z,7.43
2022-08-01T01:40:49.887Z,8.40
2022-08-01T01:43:19.495Z,6.90
2022-08-01T01:45:50.772Z,10.27
2022-08-01T01:48:22.539Z,12.63
2022-08-01T01:50:53.402Z,9.73
2022-08-01T01:53:24.517Z,8.43
2022-08-01T01:55:56.339Z,11.43
2022-08-01T01:58:25.874Z,9.33
2022-08-01T02:00:57.770Z,10.13
2022-08-01T02:03:28.166Z,8.70
2022-08-01T02:05:58.548Z,8.60
2022-08-01T02:08:27.551Z,14.67
2022-08-01T02:11:18.444Z,10.63
2022-08-01T02:13:50.265Z,10.43
2022-08-01T02:16:20.392Z,8.60
2022-08-01T02:18:48.557Z,8.37
2022-08-01T02:21:23.301Z,9.70
2022-08-01T02:23:53.531Z,9.63
2022-08-01T02:26:25.228Z,9.17
2022-08-01T02:28:58.893Z,18.70
2022-08-01T02:31:32.449Z,8.20
2022-08-01T02:34:06.402Z,8.17
2022-08-01T02:36:37.431Z,8.73
2022-08-01T02:39:10.702Z,8.70
2022-08-01T02:41:43.944Z,9.33
2022-08-01T02:44:17.974Z,11.80
2022-08-01T02:46:53.499Z,7.83
2022-08-01T02:49:23.046Z,10.77
2022-08-01T02:51:53.135Z,9.67
2022-08-01T02:54:24.328Z,7.43
2022-08-01T02:56:53.877Z,11.57
2022-08-01T02:59:27.018Z,11.63
2022-08-01T03:01:58.688Z,12.17
2022-08-01T03:04:29.517Z,13.83
2022-08-01T03:06:59.619Z,13.00
2022-08-01T03:09:29.616Z,12.03
2022-08-01T03:12:01.023Z,11.37
2022-08-01T03:14:31.735Z,10.20
2022-08-01T03:17:02.492Z,10.33
2022-08-01T03:19:32.944Z,12.33
2022-08-01T03:22:04.554Z,16.47
2022-08-01T03:24:36.159Z,12.60
2022-08-01T03:27:05.882Z,13.50
2022-08-01T03:29:36.405Z,13.80
2022-08-01T03:32:07.477Z,12.87
2022-08-01T03:34:36.036Z,13.03
2022-08-01T03:37:09.337Z,15.80
2022-08-01T03:39:46.189Z,14.37
2022-08-01T03:42:18.202Z,18.00
2022-08-01T03:44:55.289Z,14.10
2022-08-01T03:47:31.430Z,17.50
2022-08-01T03:50:01.479Z,14.20
2022-08-01T03:52:31.895Z,13.87
2022-08-01T03:55:03.703Z,12.83
2022-08-01T03:57:36.768Z,11.47
2022-08-01T04:00:10.412Z,14.70
2022-08-01T04:02:41.284Z,15.70
2022-08-01T04:05:10.470Z,13.33
2022-08-01T04:07:40.244Z,11.07
2022-08-01T04:10:09.169Z,10.37
2022-08-01T04:12:37.207Z,9.93
2022-08-01T04:15:06.626Z,15.73
2022-08-01T04:17:34.566Z,10.47
2022-08-01T04:20:04.610Z,15.13
2022-08-01T04:22:32.824Z,15.00
2022-08-01T04:25:11.955Z,10.53
2022-08-01T04:27:48.718Z,7.83
2022-08-01T04:30:24.081Z,7.10
2022-08-01T04:32:55.555Z,6.57
2022-08-01T04:36:02.429Z,5.33
2022-08-01T04:38:19.715Z,4.80
2022-08-01T04:40:48.563Z,6.47
2022-08-01T04:43:16.895Z,4.10
2022-08-01T04:45:46.505Z,6.27
2022-08-01T04:48:17.439Z,6.40
2022-08-01T04:50:47.555Z,5.40
2022-08-01T04:53:17.777Z,5.30
2022-08-01T04:55:47.369Z,4.50
2022-08-01T04:58:18.527Z,4.10
2022-08-01T05:00:47.581Z,5.03
2022-08-01T05:03:15.808Z,5.70
2022-08-01T05:05:44.154Z,6.60
2022-08-01T05:08:13.442Z,8.40
2022-08-01T05:10:41.759Z,5.43
2022-08-01T05:13:09.916Z,6.53
2022-08-01T05:15:39.106Z,8.07
2022-08-01T05:18:08.808Z,6.00
2022-08-01T05:20:38.044Z,7.40
2022-08-01T05:23:06.560Z,6.47
2022-08-01T05:25:56.818Z,7.03
2022-08-01T05:28:26.035Z,9.40
2022-08-01T05:30:56.252Z,6.60
2022-08-01T05:33:24.433Z,8.50
2022-08-01T05:35:52.938Z,7.80
2022-08-01T05:38:20.929Z,8.10
2022-08-01T05:40:50.789Z,6.53
2022-08-01T05:43:18.838Z,6.33
2022-08-01T05:45:47.371Z,7.90
2022-08-01T05:48:15.328Z,6.77
2022-08-01T05:50:43.724Z,4.90
2022-08-01T05:53:11.667Z,5.33
2022-08-01T05:55:40.061Z,5.60
2022-08-01T05:58:12.546Z,6.13
2022-08-01T06:00:41.139Z,7.30
2022-08-01T06:03:09.043Z,5.00
2022-08-01T06:05:37.473Z,5.67
2022-08-01T06:08:05.916Z,7.73
2022-08-01T06:10:34.395Z,9.40
2022-08-01T06:13:04.022Z,8.73
2022-08-01T06:15:34.237Z,4.27
2022-08-01T06:18:02.738Z,4.73
2022-08-01T06:20:31.107Z,4.47
2022-08-01T06:22:59.884Z,3.70
2022-08-01T06:25:29.418Z,3.73
2022-08-01T06:27:57.426Z,3.10
2022-08-01T06:30:25.759Z,2.33
2022-08-01T06:32:56.858Z,2.40
2022-08-01T06:35:24.871Z,2.97
2022-08-01T06:37:52.800Z,2.93
2022-08-01T06:40:20.802Z,2.27
2022-08-01T06:42:48.730Z,4.47
2022-08-01T06:45:17.501Z,3.60
2022-08-01T06:47:49.474Z,3.40
2022-08-01T06:50:21.094Z,6.73
2022-08-01T06:52:49.111Z,2.73
2022-08-01T06:55:17.459Z,3.70
2022-08-01T06:57:49.851Z,2.70
2022-08-01T07:00:20.274Z,4.07
2022-08-01T07:02:48.794Z,2.67
2022-08-01T07:05:17.181Z,1.73
2022-08-01T07:07:46.621Z,4.97
2022-08-01T07:10:15.336Z,5.43
2022-08-01T07:12:43.436Z,3.37
2022-08-01T07:15:13.320Z,2.77
2022-08-01T07:17:41.931Z,6.67
2022-08-01T07:20:11.719Z,4.17
2022-08-01T07:22:42.304Z,2.40
2022-08-01T07:25:12.900Z,6.10
2022-08-01T07:27:40.839Z,4.00
2022-08-01T07:30:10.078Z,4.97
2022-08-01T07:32:38.085Z,3.17
2022-08-01T07:35:07.106Z,2.40
2022-08-01T07:37:48.374Z,2.57
2022-08-01T07:40:20.452Z,3.63
2022-08-01T07:42:49.290Z,2.13
2022-08-01T07:45:18.026Z,4.10
2022-08-01T07:47:46.324Z,2.30
2022-08-01T07:50:15.090Z,4.30
2022-08-01T07:52:43.433Z,1.93
2022-08-01T07:55:16.183Z,2.13
2022-08-01T07:57:46.218Z,3.90
2022-08-01T08:00:15.846Z,2.90
2022-08-01T08:02:45.089Z,2.97
2022-08-01T08:05:14.068Z,1.70
2022-08-01T08:07:42.006Z,5.33
2022-08-01T08:10:10.873Z,1.83
2022-08-01T08:12:39.567Z,7.00
2022-08-01T08:15:10.275Z,2.80
2022-08-01T08:17:38.900Z,2.43
2022-08-01T08:20:09.663Z,1.87
2022-08-01T08:22:38.808Z,2.10
2022-08-01T08:25:08.567Z,2.60
2022-08-01T08:27:37.428Z,3.67
2022-08-01T08:30:09.849Z,2.30
2022-08-01T08:32:38.286Z,2.23
2022-08-01T08:35:07.847Z,5.67
2022-08-01T08:37:38.004Z,2.03
2022-08-01T08:40:16.969Z,2.90
2022-08-01T08:42:47.377Z,1.80
2022-08-01T08:45:17.211Z,10.07
2022-08-01T08:47:48.015Z,2.27
2022-08-01T08:50:16.496Z,3.07
2022-08-01T08:52:47.134Z,4.87
2022-08-01T08:55:16.473Z,2.50
2022-08-01T08:57:46.446Z,2.13
2022-08-01T09:00:17.656Z,2.70
2022-08-01T09:02:47.830Z,2.23
2022-08-01T09:05:19.472Z,4.43
2022-08-01T09:07:48.037Z,1.97
2022-08-01T09:10:16.483Z,4.90
2022-08-01T09:13:06.101Z,2.23
2022-08-01T09:15:42.948Z,2.03
2022-08-01T09:18:27.238Z,2.30
2022-08-01T09:21:10.742Z,1.67
2022-08-01T09:23:54.024Z,1.90
2022-08-01T09:26:30.979Z,2.60
2022-08-01T09:29:00.202Z,2.13
2022-08-01T09:31:38.193Z,4.50
2022-08-01T09:34:08.554Z,1.33
2022-08-01T09:36:49.871Z,3.43
2022-08-01T09:39:18.126Z,2.03
2022-08-01T09:41:46.420Z,1.33
2022-08-01T09:44:15.026Z,1.87
2022-08-01T09:46:57.452Z,2.40
2022-08-01T09:49:50.448Z,1.67
2022-08-01T09:52:26.179Z,3.50
2022-08-01T09:55:00.538Z,1.77
2022-08-01T09:57:30.403Z,6.67
2022-08-01T10:00:02.099Z,1.90
2022-08-01T10:02:36.593Z,1.67
2022-08-01T10:05:08.410Z,1.20
2022-08-01T10:07:43.627Z,2.30
2022-08-01T10:10:14.725Z,1.70
2022-08-01T10:12:45.355Z,1.87
2022-08-01T10:15:18.106Z,2.77
2022-08-01T10:17:57.136Z,1.30
2022-08-01T10:20:30.512Z,1.83
2022-08-01T10:23:06.234Z,1.37
2022-08-01T10:25:42.541Z,1.57
2022-08-01T10:28:21.801Z,2.83
2022-08-01T10:30:53.285Z,2.57
2022-08-01T10:33:51.062Z,2.50
2022-08-01T10:36:14.573Z,3.30
2022-08-01T10:38:45.388Z,3.20
2022-08-01T10:41:16.315Z,2.57
2022-08-01T10:43:46.887Z,2.60
2022-08-01T10:46:15.194Z,2.70
2022-08-01T10:48:53.607Z,4.03
2022-08-01T10:51:26.888Z,3.53
2022-08-01T10:54:12.529Z,2.23
2022-08-01T10:56:42.894Z,2.37
2022-08-01T10:59:12.085Z,5.53
2022-08-01T11:01:45.415Z,1.70
2022-08-01T11:04:18.236Z,2.13
2022-08-01T11:07:06.898Z,2.20
2022-08-01T11:09:49.469Z,1.57
2022-08-01T11:12:23.017Z,2.27
2022-08-01T11:15:29.139Z,1.23
2022-08-01T11:18:01.240Z,1.17
2022-08-01T11:20:32.865Z,2.57
2022-08-01T11:23:36.105Z,2.30
2022-08-01T11:26:29.131Z,1.40
2022-08-01T11:29:21.690Z,1.77
2022-08-01T11:31:51.176Z,0.83
2022-08-01T11:34:19.857Z,1.57
2022-08-01T11:37:05.262Z,3.73
2022-08-01T11:39:38.335Z,1.90
2022-08-01T11:42:23.583Z,2.97
2022-08-01T11:44:56.327Z,2.13
2022-08-01T11:47:45.695Z,1.80
2022-08-01T11:50:38.006Z,4.70
2022-08-01T11:53:11.268Z,1.57
2022-08-01T11:55:51.259Z,2.40
2022-08-01T11:58:27.620Z,1.27
2022-08-01T12:01:00.512Z,1.00
2022-08-01T12:03:33.543Z,1.30
2022-08-01T12:06:02.346Z,0.80
2022-08-01T12:08:34.406Z,2.90
2022-08-01T12:11:02.883Z,1.10
2022-08-01T12:13:43.014Z,0.87
2022-08-01T12:16:12.833Z,3.77
2022-08-01T12:18:41.495Z,1.20
2022-08-01T12:24:05.209Z,2.80
2022-08-01T12:26:43.137Z,2.13
2022-08-01T12:29:11.101Z,1.30
2022-08-01T12:31:39.457Z,0.90
2022-08-01T12:34:30.029Z,3.77
2022-08-01T12:37:00.845Z,5.47
2022-08-01T12:39:34.729Z,6.70
2022-08-01T12:42:03.201Z,2.13
2022-08-01T12:44:33.095Z,1.53
2022-08-01T12:47:02.167Z,2.13
2022-08-01T12:49:30.522Z,1.10
2022-08-01T12:51:59.269Z,1.00
2022-08-01T12:54:27.358Z,1.07
2022-08-01T12:56:58.453Z,2.60
2022-08-01T12:59:28.659Z,4.30
2022-08-01T13:01:59.527Z,5.27
2022-08-01T13:04:27.610Z,1.53
2022-08-01T13:06:56.293Z,7.90
2022-08-01T13:09:24.316Z,6.10
2022-08-01T13:12:03.762Z,1.53
2022-08-01T13:14:34.116Z,1.77
2022-08-01T13:17:02.605Z,2.90
2022-08-01T13:19:45.694Z,4.20
2022-08-01T13:22:13.986Z,2.97
2022-08-01T13:24:41.946Z,3.10
2022-08-01T13:27:22.165Z,5.10
2022-08-01T13:29:53.946Z,4.30
2022-08-01T13:32:29.733Z,2.03
2022-08-01T13:35:03.399Z,2.00
2022-08-01T13:37:33.358Z,2.83
2022-08-01T13:40:01.357Z,8.70
2022-08-01T13:42:30.887Z,2.60
2022-08-01T13:45:00.307Z,3.37
2022-08-01T13:47:31.303Z,2.57
2022-08-01T13:50:01.720Z,2.97
2022-08-01T13:52:30.861Z,2.20
2022-08-01T13:54:58.973Z,4.00
2022-08-01T13:57:36.647Z,1.43
2022-08-01T14:00:09.477Z,1.33
2022-08-01T14:02:37.965Z,1.00
2022-08-01T14:05:06.789Z,1.10
2022-08-01T14:07:35.163Z,1.37
2022-08-01T14:10:04.764Z,2.97
2022-08-01T14:12:47.066Z,3.10
2022-08-01T14:15:26.318Z,1.43
2022-08-01T14:18:10.520Z,1.60
2022-08-01T14:20:41.190Z,1.23
2022-08-01T14:23:09.697Z,2.23
2022-08-01T14:26:03.205Z,2.97
2022-08-01T14:28:28.733Z,1.67
2022-08-01T14:30:58.866Z,3.00
2022-08-01T14:33:27.802Z,4.97
2022-08-01T14:36:06.800Z,1.60
2022-08-01T14:38:46.282Z,1.87
2022-08-01T14:41:15.209Z,2.90
2022-08-01T14:43:43.207Z,1.57
2022-08-01T14:46:13.558Z,1.50
2022-08-01T14:48:42.083Z,2.50
2022-08-01T14:51:10.184Z,1.33
2022-08-01T14:53:53.209Z,1.73
2022-08-01T14:56:21.715Z,2.27
2022-08-01T14:58:50.063Z,3.73
2022-08-01T15:01:19.715Z,3.83
2022-08-01T15:03:49.821Z,3.40
2022-08-01T15:06:17.890Z,1.77
2022-08-01T15:08:46.310Z,3.53
2022-08-01T15:11:14.370Z,4.47
2022-08-01T15:13:45.891Z,4.80
2022-08-01T15:16:13.861Z,3.03
2022-08-01T15:18:43.721Z,10.97
2022-08-01T15:21:20.671Z,4.53
2022-08-01T15:23:57.557Z,2.13
2022-08-01T15:26:25.571Z,1.77
2022-08-01T15:28:54.391Z,3.23
2022-08-01T15:32:18.045Z,2.50
2022-08-01T15:35:07.896Z,3.23
2022-08-01T15:37:52.345Z,3.13
2022-08-01T15:40:21.661Z,2.00
2022-08-01T15:42:50.275Z,3.00
2022-08-01T15:45:45.787Z,1.50
2022-08-01T15:48:08.184Z,2.30
2022-08-01T15:50:39.318Z,2.97
2022-08-01T15:53:08.358Z,2.87
2022-08-01T15:55:38.235Z,1.90
2022-08-01T15:58:06.708Z,2.40
2022-08-01T16:00:39.308Z,2.13
2022-08-01T16:03:08.166Z,3.40
2022-08-01T16:05:42.839Z,1.70
2022-08-01T16:08:11.704Z,3.50
2022-08-01T16:10:39.739Z,1.73
2022-08-01T16:13:08.166Z,2.57
2022-08-01T16:15:37.452Z,2.93
2022-08-01T16:18:06.428Z,2.57
2022-08-01T16:20:34.496Z,2.00
2022-08-01T16:23:04.373Z,2.07
2022-08-01T16:25:32.354Z,1.73
2022-08-01T16:28:00.807Z,2.50
2022-08-01T16:30:29.018Z,1.80
2022-08-01T16:33:00.661Z,3.80
2022-08-01T16:35:36.762Z,2.83
2022-08-01T16:38:07.156Z,1.73
2022-08-01T16:40:47.251Z,6.67
2022-08-01T16:43:16.879Z,1.70
2022-08-01T16:45:45.491Z,2.27
2022-08-01T16:48:15.739Z,2.00
2022-08-01T16:50:44.082Z,1.80
2022-08-01T16:53:14.611Z,2.20
2022-08-01T16:55:49.445Z,2.27
2022-08-01T16:58:22.269Z,4.87
2022-08-01T17:00:57.589Z,2.40
2022-08-01T17:03:52.577Z,2.43
2022-08-01T17:06:22.411Z,1.63
2022-08-01T17:08:52.358Z,1.50
2022-08-01T17:11:20.339Z,3.53
2022-08-01T17:13:49.302Z,2.00
2022-08-01T17:16:17.687Z,2.33
2022-08-01T17:18:46.212Z,2.87
2022-08-01T17:21:14.126Z,2.27
2022-08-01T17:23:42.074Z,9.20
2022-08-01T17:26:11.759Z,4.10
2022-08-01T17:28:40.732Z,4.07
2022-08-01T17:31:10.595Z,2.13
2022-08-01T17:33:46.181Z,3.63
2022-08-01T17:36:15.030Z,3.73
2022-08-01T17:38:43.479Z,3.73
2022-08-01T17:41:12.883Z,3.60
2022-08-01T17:43:41.208Z,3.00
2022-08-01T17:46:09.788Z,2.77
2022-08-01T17:48:38.444Z,2.23
2022-08-01T17:51:06.765Z,2.20
2022-08-01T17:53:35.721Z,2.13
2022-08-01T17:56:05.895Z,6.80
2022-08-01T17:58:51.745Z,2.50
2022-08-01T18:01:21.380Z,3.07
2022-08-01T18:03:50.103Z,2.57
2022-08-01T18:06:23.430Z,2.40
2022-08-01T18:08:55.325Z,4.00
2022-08-01T18:11:27.411Z,2.03
2022-08-01T18:13:59.569Z,2.57
2022-08-01T18:16:28.015Z,3.37
2022-08-01T18:18:56.530Z,4.07
2022-08-01T18:21:24.946Z,5.30
2022-08-01T18:23:52.903Z,2.90
2022-08-01T18:26:21.753Z,2.53
2022-08-01T18:28:49.764Z,2.50
2022-08-01T18:31:20.965Z,3.57
2022-08-01T18:33:49.014Z,2.87
2022-08-01T18:36:32.410Z,3.33
2022-08-01T18:39:04.421Z,4.67
2022-08-01T18:41:33.402Z,6.17
2022-08-01T18:44:05.763Z,5.17
2022-08-01T18:46:39.090Z,5.50
2022-08-01T18:49:08.775Z,6.33
2022-08-01T18:51:43.481Z,5.13
2022-08-01T18:54:12.565Z,5.30
2022-08-01T18:56:40.900Z,5.03
2022-08-01T18:59:08.934Z,3.73
2022-08-01T19:01:40.069Z,4.83
2022-08-01T19:04:08.751Z,4.60
2022-08-01T19:06:37.256Z,5.03
2022-08-01T19:09:05.808Z,4.13
2022-08-01T19:11:35.902Z,5.60
2022-08-01T19:14:04.292Z,6.20
2022-08-01T19:16:32.938Z,6.17
2022-08-01T19:19:04.750Z,4.90
2022-08-01T19:21:33.045Z,4.27
2022-08-01T19:24:23.367Z,6.23
2022-08-01T19:26:54.786Z,3.30
2022-08-01T19:29:35.235Z,8.77
2022-08-01T19:32:06.014Z,4.77
2022-08-01T19:34:37.549Z,9.23
2022-08-01T19:37:06.179Z,6.73
2022-08-01T19:39:34.398Z,2.60
2022-08-01T19:42:04.425Z,3.70
2022-08-01T19:44:33.427Z,9.23
2022-08-01T19:47:03.349Z,4.87
2022-08-01T19:49:31.494Z,4.37
2022-08-01T19:52:02.855Z,3.80
2022-08-01T19:54:35.974Z,4.93
2022-08-01T19:57:06.973Z,5.70
2022-08-01T19:59:36.384Z,4.70
2022-08-01T20:02:05.829Z,5.50
2022-08-01T20:04:34.786Z,10.03
2022-08-01T20:07:04.716Z,4.10
2022-08-01T20:09:33.825Z,3.90
2022-08-01T20:12:01.762Z,7.50
2022-08-01T20:14:31.496Z,6.13
2022-08-01T20:16:59.559Z,10.47
2022-08-01T20:19:29.862Z,5.67
2022-08-01T20:22:02.478Z,6.97
2022-08-01T20:24:39.531Z,5.40
2022-08-01T20:27:11.830Z,5.10
2022-08-01T20:29:40.918Z,4.20
2022-08-01T20:32:09.817Z,6.00
2022-08-01T20:34:40.270Z,5.83
2022-08-01T20:37:12.843Z,5.50
2022-08-01T20:39:45.130Z,7.97
2022-08-01T20:42:14.297Z,7.83
2022-08-01T20:44:43.081Z,6.30
2022-08-01T20:47:11.342Z,8.67
2022-08-01T20:49:39.713Z,7.20
2022-08-01T20:52:11.702Z,5.90
2022-08-01T20:54:42.093Z,7.57
2022-08-01T20:57:17.064Z,6.07
2022-08-01T20:59:56.788Z,5.43
2022-08-01T21:02:35.757Z,5.13
2022-08-01T21:05:06.331Z,6.23
2022-08-01T21:07:39.810Z,5.57
2022-08-01T21:10:09.668Z,8.23
2022-08-01T21:12:49.542Z,4.37
2022-08-01T21:15:30.890Z,5.70
2022-08-01T21:18:03.762Z,5.20
2022-08-01T21:20:34.768Z,6.40
2022-08-01T21:23:14.818Z,4.90
2022-08-01T21:25:44.061Z,6.37
2022-08-01T21:28:16.037Z,8.80
2022-08-01T21:30:55.632Z,9.47
2022-08-01T21:33:24.451Z,9.73
2022-08-01T21:35:55.966Z,9.03
2022-08-01T21:38:24.822Z,8.30
2022-08-01T21:40:54.809Z,7.93
2022-08-01T21:43:24.405Z,6.33
2022-08-01T21:45:58.361Z,6.13
2022-08-01T21:48:30.860Z,8.37
2022-08-01T21:51:01.333Z,6.63
2022-08-01T21:53:43.207Z,6.83
2022-08-01T21:56:23.489Z,5.50
2022-08-01T21:59:00.506Z,6.63
2022-08-01T22:01:50.891Z,6.73
2022-08-01T22:04:34.552Z,5.30
2022-08-01T22:07:04.456Z,6.80
2022-08-01T22:09:34.159Z,4.97
2022-08-01T22:12:07.150Z,5.40
2022-08-01T22:14:43.142Z,8.07
2022-08-01T22:17:15.271Z,5.67
2022-08-01T22:19:47.022Z,7.43
2022-08-01T22:22:50.794Z,6.03
2022-08-01T22:25:07.931Z,11.43
2022-08-01T22:28:02.873Z,4.70
2022-08-01T22:30:28.473Z,4.80
2022-08-01T22:33:15.289Z,6.53
2022-08-01T22:35:45.673Z,5.70
2022-08-01T22:38:14.132Z,5.10
2022-08-01T22:40:48.970Z,5.53
2022-08-01T22:43:25.324Z,7.03
2022-08-01T22:46:06.979Z,8.03
2022-08-01T22:48:43.155Z,4.77
2022-08-01T22:51:24.706Z,5.50
2022-08-01T22:53:59.370Z,5.13
2022-08-01T22:56:30.450Z,7.20
2022-08-01T22:59:03.279Z,7.93
2022-08-01T23:01:34.142Z,8.87
2022-08-01T23:04:03.918Z,7.13
2022-08-01T23:06:39.731Z,6.70
2022-08-01T23:09:10.180Z,6.00
2022-08-01T23:11:39.260Z,5.37
2022-08-01T23:14:08.805Z,5.40
2022-08-01T23:16:39.307Z,5.63
2022-08-01T23:19:10.040Z,6.13
2022-08-01T23:21:41.902Z,5.27
2022-08-01T23:24:10.898Z,5.53
2022-08-01T23:26:39.298Z,7.40
2022-08-01T23:29:09.107Z,5.87
2022-08-01T23:31:51.754Z,5.27
2022-08-01T23:34:26.306Z,7.83
2022-08-01T23:36:54.713Z,6.77
2022-08-01T23:39:22.678Z,5.83
2022-08-01T23:41:57.743Z,6.77
2022-08-01T23:44:26.652Z,7.13
2022-08-01T23:46:56.406Z,4.93
2022-08-01T23:49:24.558Z,10.53
2022-08-01T23:51:53.054Z,7.30
2022-08-01T23:54:21.141Z,6.67
2022-08-01T23:56:49.553Z,6.33
2022-08-01T23:59:17.586Z,5.20
